sensor_id;sensor_type;location;lat;lon;timestamp;P1;durP1;ratioP1;P2;durP2;ratioP2
57822;SDS011;43650;48.064;20.624;2023-03-23T00:00:23;8.23;;;3.87;;
57822;SDS011;43650;48.064;20.624;2023-03-23T00:01:23;6.17;;;3.87;;
57822;SDS011;43650;48.064;20.624;2023-03-23T00:02:27;6.78;;;3.53;;
57822;SDS011;43650;48.064;20.624;2023-03-23T00:03:28;6.90;;;4.05;;
57822;SDS011;43650;48.064;20.624;2023-03-23T00:04:31;8.88;;;4.90;;
57822;SDS011;43650;48.064;20.624;2023-03-23T00:05:32;7.83;;;4.10;;
57822;SDS011;43650;48.064;20.624;2023-03-23T00:06:33;7.75;;;4.93;;
57822;SDS011;43650;48.064;20.624;2023-03-23T00:07:34;8.52;;;3.95;;
57822;SDS011;43650;48.064;20.624;2023-03-23T00:08:37;6.53;;;4.15;;
57822;SDS011;43650;48.064;20.624;2023-03-23T00:09:45;7.50;;;4.40;;
57822;SDS011;43650;48.064;20.624;2023-03-23T00:10:50;6.43;;;4.30;;
57822;SDS011;43650;48.064;20.624;2023-03-23T00:11:56;8.82;;;4.65;;
57822;SDS011;43650;48.064;20.624;2023-03-23T00:13:04;7.15;;;4.70;;
57822;SDS011;43650;48.064;20.624;2023-03-23T00:14:05;8.17;;;4.10;;
57822;SDS011;43650;48.064;20.624;2023-03-23T00:15:06;7.07;;;4.23;;
57822;SDS011;43650;48.064;20.624;2023-03-23T00:16:08;7.35;;;4.18;;
57822;SDS011;43650;48.064;20.624;2023-03-23T00:17:18;7.78;;;4.50;;
57822;SDS011;43650;48.064;20.624;2023-03-23T00:18:19;11.67;;;4.67;;
57822;SDS011;43650;48.064;20.624;2023-03-23T00:19:23;8.45;;;4.55;;
57822;SDS011;43650;48.064;20.624;2023-03-23T00:20:23;8.70;;;4.37;;
57822;SDS011;43650;48.064;20.624;2023-03-23T00:21:34;12.50;;;4.87;;
57822;SDS011;43650;48.064;20.624;2023-03-23T00:22:35;8.20;;;5.12;;
57822;SDS011;43650;48.064;20.624;2023-03-23T00:23:37;6.53;;;4.20;;
57822;SDS011;43650;48.064;20.624;2023-03-23T00:24:39;8.98;;;4.60;;
57822;SDS011;43650;48.064;20.624;2023-03-23T00:25:39;8.65;;;5.62;;
57822;SDS011;43650;48.064;20.624;2023-03-23T00:26:40;9.37;;;5.00;;
57822;SDS011;43650;48.064;20.624;2023-03-23T00:27:40;9.17;;;4.70;;
57822;SDS011;43650;48.064;20.624;2023-03-23T00:28:41;7.17;;;4.27;;
57822;SDS011;43650;48.064;20.624;2023-03-23T00:29:41;9.87;;;5.40;;
57822;SDS011;43650;48.064;20.624;2023-03-23T00:30:42;8.63;;;4.93;;
57822;SDS011;43650;48.064;20.624;2023-03-23T00:31:42;7.27;;;4.30;;
57822;SDS011;43650;48.064;20.624;2023-03-23T00:32:46;12.13;;;5.37;;
57822;SDS011;43650;48.064;20.624;2023-03-23T00:33:48;9.80;;;4.87;;
57822;SDS011;43650;48.064;20.624;2023-03-23T00:34:48;7.87;;;4.60;;
57822;SDS011;43650;48.064;20.624;2023-03-23T00:35:49;14.13;;;5.40;;
57822;SDS011;43650;48.064;20.624;2023-03-23T00:36:53;9.45;;;5.10;;
57822;SDS011;43650;48.064;20.624;2023-03-23T00:37:56;11.07;;;5.30;;
57822;SDS011;43650;48.064;20.624;2023-03-23T00:38:58;9.75;;;6.15;;
57822;SDS011;43650;48.064;20.624;2023-03-23T00:39:59;8.43;;;4.97;;
57822;SDS011;43650;48.064;20.624;2023-03-23T00:41:00;8.60;;;4.75;;
57822;SDS011;43650;48.064;20.624;2023-03-23T00:42:04;12.13;;;5.43;;
57822;SDS011;43650;48.064;20.624;2023-03-23T00:43:05;9.77;;;4.87;;
57822;SDS011;43650;48.064;20.624;2023-03-23T00:44:05;7.30;;;4.67;;
57822;SDS011;43650;48.064;20.624;2023-03-23T00:45:08;10.48;;;5.18;;
57822;SDS011;43650;48.064;20.624;2023-03-23T00:46:10;8.68;;;4.87;;
57822;SDS011;43650;48.064;20.624;2023-03-23T00:47:11;10.33;;;3.90;;
57822;SDS011;43650;48.064;20.624;2023-03-23T00:48:12;7.82;;;4.12;;
57822;SDS011;43650;48.064;20.624;2023-03-23T00:49:13;10.20;;;4.73;;
57822;SDS011;43650;48.064;20.624;2023-03-23T00:50:14;6.30;;;3.58;;
57822;SDS011;43650;48.064;20.624;2023-03-23T00:51:14;6.27;;;4.30;;
57822;SDS011;43650;48.064;20.624;2023-03-23T00:52:15;7.47;;;4.50;;
57822;SDS011;43650;48.064;20.624;2023-03-23T00:53:15;8.63;;;4.50;;
57822;SDS011;43650;48.064;20.624;2023-03-23T00:54:16;8.82;;;4.10;;
57822;SDS011;43650;48.064;20.624;2023-03-23T00:55:17;6.17;;;3.90;;
57822;SDS011;43650;48.064;20.624;2023-03-23T00:56:17;9.67;;;4.57;;
57822;SDS011;43650;48.064;20.624;2023-03-23T00:57:17;7.30;;;4.40;;
57822;SDS011;43650;48.064;20.624;2023-03-23T00:58:18;6.37;;;3.50;;
57822;SDS011;43650;48.064;20.624;2023-03-23T00:59:18;6.27;;;3.50;;
57822;SDS011;43650;48.064;20.624;2023-03-23T01:00:20;7.18;;;3.55;;
57822;SDS011;43650;48.064;20.624;2023-03-23T01:01:20;6.40;;;3.97;;
57822;SDS011;43650;48.064;20.624;2023-03-23T01:02:21;6.30;;;4.03;;
57822;SDS011;43650;48.064;20.624;2023-03-23T01:03:24;6.80;;;4.00;;
57822;SDS011;43650;48.064;20.624;2023-03-23T01:06:32;7.15;;;3.35;;
57822;SDS011;43650;48.064;20.624;2023-03-23T01:07:35;8.02;;;4.07;;
57822;SDS011;43650;48.064;20.624;2023-03-23T01:08:35;6.53;;;4.00;;
57822;SDS011;43650;48.064;20.624;2023-03-23T01:09:39;7.75;;;3.28;;
57822;SDS011;43650;48.064;20.624;2023-03-23T01:10:40;6.90;;;3.78;;
57822;SDS011;43650;48.064;20.624;2023-03-23T01:11:41;5.43;;;3.70;;
57822;SDS011;43650;48.064;20.624;2023-03-23T01:13:44;7.45;;;3.92;;
57822;SDS011;43650;48.064;20.624;2023-03-23T01:14:44;6.47;;;3.17;;
57822;SDS011;43650;48.064;20.624;2023-03-23T01:15:45;7.75;;;3.92;;
57822;SDS011;43650;48.064;20.624;2023-03-23T01:16:46;6.57;;;3.63;;
57822;SDS011;43650;48.064;20.624;2023-03-23T01:17:46;6.77;;;3.57;;
57822;SDS011;43650;48.064;20.624;2023-03-23T01:18:47;9.57;;;4.47;;
57822;SDS011;43650;48.064;20.624;2023-03-23T01:19:47;8.47;;;3.13;;
57822;SDS011;43650;48.064;20.624;2023-03-23T01:20:48;7.15;;;3.03;;
57822;SDS011;43650;48.064;20.624;2023-03-23T01:21:49;7.17;;;3.57;;
57822;SDS011;43650;48.064;20.624;2023-03-23T01:22:49;5.50;;;3.20;;
57822;SDS011;43650;48.064;20.624;2023-03-23T01:23:50;5.57;;;2.97;;
57822;SDS011;43650;48.064;20.624;2023-03-23T01:24:51;5.10;;;3.00;;
57822;SDS011;43650;48.064;20.624;2023-03-23T01:25:51;5.87;;;3.73;;
57822;SDS011;43650;48.064;20.624;2023-03-23T01:26:54;5.97;;;2.95;;
57822;SDS011;43650;48.064;20.624;2023-03-23T01:27:54;6.00;;;3.07;;
57822;SDS011;43650;48.064;20.624;2023-03-23T01:28:55;5.30;;;3.77;;
57822;SDS011;43650;48.064;20.624;2023-03-23T01:29:55;7.53;;;3.40;;
57822;SDS011;43650;48.064;20.624;2023-03-23T01:31:02;7.77;;;3.57;;
57822;SDS011;43650;48.064;20.624;2023-03-23T01:32:04;5.32;;;3.00;;
57822;SDS011;43650;48.064;20.624;2023-03-23T01:33:04;5.82;;;3.42;;
57822;SDS011;43650;48.064;20.624;2023-03-23T01:34:05;6.23;;;3.10;;
57822;SDS011;43650;48.064;20.624;2023-03-23T01:35:06;5.73;;;3.23;;
57822;SDS011;43650;48.064;20.624;2023-03-23T01:36:11;11.20;;;3.05;;
57822;SDS011;43650;48.064;20.624;2023-03-23T01:37:15;6.18;;;3.50;;
57822;SDS011;43650;48.064;20.624;2023-03-23T01:38:16;5.82;;;3.05;;
57822;SDS011;43650;48.064;20.624;2023-03-23T01:39:17;6.00;;;3.20;;
57822;SDS011;43650;48.064;20.624;2023-03-23T01:41:18;5.30;;;3.40;;
57822;SDS011;43650;48.064;20.624;2023-03-23T01:42:23;6.53;;;3.22;;
57822;SDS011;43650;48.064;20.624;2023-03-23T01:43:25;5.25;;;3.08;;
57822;SDS011;43650;48.064;20.624;2023-03-23T01:45:27;8.40;;;3.93;;
57822;SDS011;43650;48.064;20.624;2023-03-23T01:46:33;6.53;;;3.53;;
57822;SDS011;43650;48.064;20.624;2023-03-23T01:47:34;5.40;;;2.87;;
57822;SDS011;43650;48.064;20.624;2023-03-23T01:48:35;6.63;;;2.93;;
57822;SDS011;43650;48.064;20.624;2023-03-23T01:49:38;4.15;;;3.22;;
57822;SDS011;43650;48.064;20.624;2023-03-23T01:51:03;6.72;;;3.60;;
57822;SDS011;43650;48.064;20.624;2023-03-23T01:52:10;7.22;;;2.87;;
57822;SDS011;43650;48.064;20.624;2023-03-23T01:53:17;5.90;;;3.60;;
57822;SDS011;43650;48.064;20.624;2023-03-23T01:54:18;7.20;;;3.42;;
57822;SDS011;43650;48.064;20.624;2023-03-23T01:55:21;6.00;;;3.12;;
57822;SDS011;43650;48.064;20.624;2023-03-23T01:56:22;7.25;;;2.97;;
57822;SDS011;43650;48.064;20.624;2023-03-23T01:57:27;6.10;;;2.95;;
57822;SDS011;43650;48.064;20.624;2023-03-23T01:58:28;5.60;;;3.37;;
57822;SDS011;43650;48.064;20.624;2023-03-23T01:59:31;6.47;;;3.28;;
57822;SDS011;43650;48.064;20.624;2023-03-23T02:00:33;5.97;;;3.35;;
57822;SDS011;43650;48.064;20.624;2023-03-23T02:01:34;5.80;;;3.17;;
57822;SDS011;43650;48.064;20.624;2023-03-23T02:02:38;7.85;;;4.00;;
57822;SDS011;43650;48.064;20.624;2023-03-23T02:03:39;10.10;;;3.83;;
57822;SDS011;43650;48.064;20.624;2023-03-23T02:04:42;7.30;;;4.32;;
57822;SDS011;43650;48.064;20.624;2023-03-23T02:05:42;5.83;;;3.50;;
57822;SDS011;43650;48.064;20.624;2023-03-23T02:06:43;6.57;;;3.93;;
57822;SDS011;43650;48.064;20.624;2023-03-23T02:07:44;7.45;;;3.45;;
57822;SDS011;43650;48.064;20.624;2023-03-23T02:08:45;8.68;;;3.50;;
57822;SDS011;43650;48.064;20.624;2023-03-23T02:09:49;5.00;;;2.97;;
57822;SDS011;43650;48.064;20.624;2023-03-23T02:10:50;6.80;;;3.55;;
57822;SDS011;43650;48.064;20.624;2023-03-23T02:11:51;9.13;;;3.97;;
57822;SDS011;43650;48.064;20.624;2023-03-23T02:12:53;9.82;;;3.80;;
57822;SDS011;43650;48.064;20.624;2023-03-23T02:13:53;4.57;;;2.93;;
57822;SDS011;43650;48.064;20.624;2023-03-23T02:14:54;6.32;;;3.20;;
57822;SDS011;43650;48.064;20.624;2023-03-23T02:20:47;9.03;;;3.17;;
57822;SDS011;43650;48.064;20.624;2023-03-23T02:24:49;6.43;;;3.30;;
57822;SDS011;43650;48.064;20.624;2023-03-23T02:29:51;6.28;;;3.15;;
57822;SDS011;43650;48.064;20.624;2023-03-23T02:34:00;4.53;;;2.87;;
57822;SDS011;43650;48.064;20.624;2023-03-23T02:35:28;6.12;;;3.03;;
57822;SDS011;43650;48.064;20.624;2023-03-23T02:36:58;8.65;;;3.78;;
57822;SDS011;43650;48.064;20.624;2023-03-23T02:38:02;5.45;;;3.50;;
57822;SDS011;43650;48.064;20.624;2023-03-23T02:39:16;7.35;;;3.87;;
57822;SDS011;43650;48.064;20.624;2023-03-23T02:40:21;8.00;;;3.97;;
57822;SDS011;43650;48.064;20.624;2023-03-23T02:41:29;9.77;;;3.90;;
57822;SDS011;43650;48.064;20.624;2023-03-23T02:42:31;7.05;;;3.67;;
57822;SDS011;43650;48.064;20.624;2023-03-23T02:43:33;6.00;;;3.72;;
57822;SDS011;43650;48.064;20.624;2023-03-23T02:44:38;7.28;;;3.87;;
57822;SDS011;43650;48.064;20.624;2023-03-23T02:45:40;9.38;;;4.10;;
57822;SDS011;43650;48.064;20.624;2023-03-23T02:46:43;9.38;;;3.83;;
57822;SDS011;43650;48.064;20.624;2023-03-23T02:47:44;6.18;;;3.67;;
57822;SDS011;43650;48.064;20.624;2023-03-23T02:48:46;6.55;;;3.85;;
57822;SDS011;43650;48.064;20.624;2023-03-23T02:49:48;5.95;;;4.00;;
57822;SDS011;43650;48.064;20.624;2023-03-23T02:50:52;9.18;;;4.62;;
57822;SDS011;43650;48.064;20.624;2023-03-23T02:51:53;7.65;;;4.07;;
57822;SDS011;43650;48.064;20.624;2023-03-23T02:52:54;8.27;;;4.32;;
57822;SDS011;43650;48.064;20.624;2023-03-23T02:53:56;8.88;;;4.97;;
57822;SDS011;43650;48.064;20.624;2023-03-23T02:54:58;8.80;;;4.70;;
57822;SDS011;43650;48.064;20.624;2023-03-23T02:57:02;9.23;;;4.18;;
57822;SDS011;43650;48.064;20.624;2023-03-23T02:58:03;11.32;;;4.45;;
57822;SDS011;43650;48.064;20.624;2023-03-23T02:59:04;10.73;;;4.95;;
57822;SDS011;43650;48.064;20.624;2023-03-23T03:00:06;7.07;;;3.77;;
57822;SDS011;43650;48.064;20.624;2023-03-23T03:01:46;8.77;;;4.20;;
57822;SDS011;43650;48.064;20.624;2023-03-23T03:02:34;8.50;;;4.40;;
57822;SDS011;43650;48.064;20.624;2023-03-23T03:03:40;9.98;;;4.65;;
57822;SDS011;43650;48.064;20.624;2023-03-23T03:04:41;8.73;;;4.50;;
57822;SDS011;43650;48.064;20.624;2023-03-23T03:08:50;11.40;;;4.55;;
57822;SDS011;43650;48.064;20.624;2023-03-23T03:10:25;9.45;;;4.82;;
57822;SDS011;43650;48.064;20.624;2023-03-23T03:11:27;7.30;;;4.80;;
57822;SDS011;43650;48.064;20.624;2023-03-23T03:14:33;10.40;;;5.03;;
57822;SDS011;43650;48.064;20.624;2023-03-23T03:15:45;9.90;;;4.57;;
57822;SDS011;43650;48.064;20.624;2023-03-23T03:17:58;12.27;;;5.62;;
57822;SDS011;43650;48.064;20.624;2023-03-23T03:19:13;13.13;;;5.72;;
57822;SDS011;43650;48.064;20.624;2023-03-23T03:20:53;20.77;;;7.28;;
57822;SDS011;43650;48.064;20.624;2023-03-23T03:21:55;13.13;;;7.22;;
57822;SDS011;43650;48.064;20.624;2023-03-23T03:22:57;19.55;;;8.43;;
57822;SDS011;43650;48.064;20.624;2023-03-23T03:24:00;15.02;;;7.20;;
57822;SDS011;43650;48.064;20.624;2023-03-23T03:25:01;19.67;;;8.20;;
57822;SDS011;43650;48.064;20.624;2023-03-23T03:26:02;13.00;;;6.55;;
57822;SDS011;43650;48.064;20.624;2023-03-23T03:27:04;9.07;;;5.97;;
57822;SDS011;43650;48.064;20.624;2023-03-23T03:28:06;10.57;;;6.43;;
57822;SDS011;43650;48.064;20.624;2023-03-23T03:29:07;13.33;;;6.27;;
57822;SDS011;43650;48.064;20.624;2023-03-23T03:30:08;17.87;;;6.05;;
57822;SDS011;43650;48.064;20.624;2023-03-23T03:31:10;9.90;;;4.82;;
57822;SDS011;43650;48.064;20.624;2023-03-23T03:32:11;9.67;;;4.93;;
57822;SDS011;43650;48.064;20.624;2023-03-23T03:33:14;8.05;;;4.07;;
57822;SDS011;43650;48.064;20.624;2023-03-23T03:34:15;8.37;;;4.53;;
57822;SDS011;43650;48.064;20.624;2023-03-23T03:35:17;13.38;;;4.80;;
57822;SDS011;43650;48.064;20.624;2023-03-23T03:36:19;13.27;;;5.32;;
57822;SDS011;43650;48.064;20.624;2023-03-23T03:37:21;8.40;;;4.68;;
57822;SDS011;43650;48.064;20.624;2023-03-23T03:38:22;10.15;;;4.97;;
57822;SDS011;43650;48.064;20.624;2023-03-23T03:39:22;9.50;;;5.23;;
57822;SDS011;43650;48.064;20.624;2023-03-23T03:40:23;9.60;;;4.90;;
57822;SDS011;43650;48.064;20.624;2023-03-23T03:41:24;9.25;;;4.50;;
57822;SDS011;43650;48.064;20.624;2023-03-23T03:42:24;7.82;;;4.65;;
57822;SDS011;43650;48.064;20.624;2023-03-23T03:43:25;8.80;;;5.07;;
57822;SDS011;43650;48.064;20.624;2023-03-23T03:44:25;8.07;;;4.97;;
57822;SDS011;43650;48.064;20.624;2023-03-23T03:45:26;10.47;;;5.27;;
57822;SDS011;43650;48.064;20.624;2023-03-23T03:46:26;9.50;;;4.13;;
57822;SDS011;43650;48.064;20.624;2023-03-23T03:47:29;8.48;;;4.72;;
57822;SDS011;43650;48.064;20.624;2023-03-23T03:48:30;10.33;;;4.50;;
57822;SDS011;43650;48.064;20.624;2023-03-23T03:49:30;9.47;;;3.87;;
57822;SDS011;43650;48.064;20.624;2023-03-23T03:50:30;10.00;;;4.10;;
57822;SDS011;43650;48.064;20.624;2023-03-23T03:51:32;7.47;;;4.18;;
57822;SDS011;43650;48.064;20.624;2023-03-23T03:52:33;10.65;;;4.62;;
57822;SDS011;43650;48.064;20.624;2023-03-23T03:53:34;8.07;;;4.00;;
57822;SDS011;43650;48.064;20.624;2023-03-23T03:54:34;10.43;;;4.17;;
57822;SDS011;43650;48.064;20.624;2023-03-23T03:55:35;9.98;;;5.03;;
57822;SDS011;43650;48.064;20.624;2023-03-23T03:56:38;8.90;;;4.43;;
57822;SDS011;43650;48.064;20.624;2023-03-23T03:57:40;9.38;;;4.47;;
57822;SDS011;43650;48.064;20.624;2023-03-23T03:58:41;8.48;;;3.92;;
57822;SDS011;43650;48.064;20.624;2023-03-23T03:59:42;7.70;;;3.92;;
57822;SDS011;43650;48.064;20.624;2023-03-23T04:00:43;9.43;;;4.57;;
57822;SDS011;43650;48.064;20.624;2023-03-23T04:01:47;10.18;;;4.57;;
57822;SDS011;43650;48.064;20.624;2023-03-23T04:02:53;8.75;;;4.25;;
57822;SDS011;43650;48.064;20.624;2023-03-23T04:03:55;17.75;;;8.25;;
57822;SDS011;43650;48.064;20.624;2023-03-23T04:05:56;7.72;;;4.35;;
57822;SDS011;43650;48.064;20.624;2023-03-23T04:06:59;10.75;;;4.80;;
57822;SDS011;43650;48.064;20.624;2023-03-23T04:08:02;10.68;;;4.90;;
57822;SDS011;43650;48.064;20.624;2023-03-23T04:09:04;7.60;;;4.10;;
57822;SDS011;43650;48.064;20.624;2023-03-23T04:10:06;10.75;;;4.47;;
57822;SDS011;43650;48.064;20.624;2023-03-23T04:11:10;8.95;;;4.50;;
57822;SDS011;43650;48.064;20.624;2023-03-23T04:12:13;9.75;;;4.78;;
57822;SDS011;43650;48.064;20.624;2023-03-23T04:13:14;8.50;;;4.07;;
57822;SDS011;43650;48.064;20.624;2023-03-23T04:14:15;7.57;;;4.32;;
57822;SDS011;43650;48.064;20.624;2023-03-23T04:15:15;9.03;;;4.43;;
57822;SDS011;43650;48.064;20.624;2023-03-23T04:16:16;9.63;;;5.32;;
57822;SDS011;43650;48.064;20.624;2023-03-23T04:17:16;7.10;;;4.15;;
57822;SDS011;43650;48.064;20.624;2023-03-23T04:18:17;8.90;;;4.53;;
57822;SDS011;43650;48.064;20.624;2023-03-23T04:19:18;8.27;;;4.50;;
57822;SDS011;43650;48.064;20.624;2023-03-23T04:20:18;7.30;;;3.47;;
57822;SDS011;43650;48.064;20.624;2023-03-23T04:21:19;6.87;;;3.60;;
57822;SDS011;43650;48.064;20.624;2023-03-23T04:22:19;10.27;;;4.70;;
57822;SDS011;43650;48.064;20.624;2023-03-23T04:23:20;9.27;;;4.67;;
57822;SDS011;43650;48.064;20.624;2023-03-23T04:24:21;7.37;;;4.22;;
57822;SDS011;43650;48.064;20.624;2023-03-23T04:25:24;7.72;;;3.97;;
57822;SDS011;43650;48.064;20.624;2023-03-23T04:26:25;9.00;;;4.20;;
57822;SDS011;43650;48.064;20.624;2023-03-23T04:27:28;11.50;;;4.22;;
57822;SDS011;43650;48.064;20.624;2023-03-23T04:28:29;8.03;;;4.40;;
57822;SDS011;43650;48.064;20.624;2023-03-23T04:29:29;5.20;;;3.73;;
57822;SDS011;43650;48.064;20.624;2023-03-23T04:30:30;8.18;;;4.28;;
57822;SDS011;43650;48.064;20.624;2023-03-23T04:32:32;9.80;;;4.70;;
57822;SDS011;43650;48.064;20.624;2023-03-23T04:33:32;9.70;;;3.70;;
57822;SDS011;43650;48.064;20.624;2023-03-23T04:34:32;8.60;;;4.70;;
57822;SDS011;43650;48.064;20.624;2023-03-23T04:35:35;8.00;;;3.92;;
57822;SDS011;43650;48.064;20.624;2023-03-23T04:36:35;11.80;;;5.13;;
57822;SDS011;43650;48.064;20.624;2023-03-23T04:37:36;11.50;;;4.60;;
57822;SDS011;43650;48.064;20.624;2023-03-23T04:38:37;7.43;;;4.30;;
57822;SDS011;43650;48.064;20.624;2023-03-23T04:39:38;7.95;;;4.05;;
57822;SDS011;43650;48.064;20.624;2023-03-23T04:40:40;8.25;;;4.28;;
57822;SDS011;43650;48.064;20.624;2023-03-23T04:41:42;7.35;;;3.62;;
57822;SDS011;43650;48.064;20.624;2023-03-23T04:42:42;8.17;;;4.40;;
57822;SDS011;43650;48.064;20.624;2023-03-23T04:43:47;9.40;;;4.22;;
57822;SDS011;43650;48.064;20.624;2023-03-23T04:44:52;6.70;;;4.15;;
57822;SDS011;43650;48.064;20.624;2023-03-23T04:45:54;7.87;;;3.80;;
57822;SDS011;43650;48.064;20.624;2023-03-23T04:46:56;9.40;;;4.10;;
57822;SDS011;43650;48.064;20.624;2023-03-23T04:47:56;7.93;;;3.70;;
57822;SDS011;43650;48.064;20.624;2023-03-23T04:48:58;9.50;;;4.05;;
57822;SDS011;43650;48.064;20.624;2023-03-23T04:49:58;6.93;;;4.00;;
57822;SDS011;43650;48.064;20.624;2023-03-23T04:51:00;7.00;;;4.33;;
57822;SDS011;43650;48.064;20.624;2023-03-23T04:52:02;7.53;;;3.70;;
57822;SDS011;43650;48.064;20.624;2023-03-23T04:53:04;6.35;;;3.35;;
57822;SDS011;43650;48.064;20.624;2023-03-23T04:54:04;7.07;;;3.67;;
57822;SDS011;43650;48.064;20.624;2023-03-23T04:55:05;9.67;;;4.63;;
57822;SDS011;43650;48.064;20.624;2023-03-23T04:56:09;6.37;;;3.12;;
57822;SDS011;43650;48.064;20.624;2023-03-23T04:57:09;5.77;;;3.33;;
57822;SDS011;43650;48.064;20.624;2023-03-23T04:58:10;6.10;;;3.00;;
57822;SDS011;43650;48.064;20.624;2023-03-23T04:59:12;6.90;;;3.83;;
57822;SDS011;43650;48.064;20.624;2023-03-23T05:00:13;7.82;;;4.15;;
57822;SDS011;43650;48.064;20.624;2023-03-23T05:01:22;6.93;;;3.97;;
57822;SDS011;43650;48.064;20.624;2023-03-23T05:02:27;7.22;;;3.78;;
57822;SDS011;43650;48.064;20.624;2023-03-23T05:03:30;7.15;;;4.00;;
57822;SDS011;43650;48.064;20.624;2023-03-23T05:04:30;8.07;;;3.85;;
57822;SDS011;43650;48.064;20.624;2023-03-23T05:05:37;10.07;;;3.62;;
57822;SDS011;43650;48.064;20.624;2023-03-23T05:06:37;13.33;;;5.07;;
57822;SDS011;43650;48.064;20.624;2023-03-23T05:07:38;10.37;;;3.80;;
57822;SDS011;43650;48.064;20.624;2023-03-23T05:08:39;7.50;;;3.65;;
57822;SDS011;43650;48.064;20.624;2023-03-23T05:09:40;7.37;;;3.62;;
57822;SDS011;43650;48.064;20.624;2023-03-23T05:10:41;8.60;;;3.93;;
57822;SDS011;43650;48.064;20.624;2023-03-23T05:11:41;11.57;;;4.10;;
57822;SDS011;43650;48.064;20.624;2023-03-23T05:12:42;7.27;;;3.87;;
57822;SDS011;43650;48.064;20.624;2023-03-23T05:13:43;9.00;;;4.25;;
57822;SDS011;43650;48.064;20.624;2023-03-23T05:14:44;11.82;;;4.60;;
57822;SDS011;43650;48.064;20.624;2023-03-23T05:15:44;9.27;;;4.60;;
57822;SDS011;43650;48.064;20.624;2023-03-23T05:16:45;6.53;;;3.67;;
57822;SDS011;43650;48.064;20.624;2023-03-23T05:17:50;6.65;;;3.60;;
57822;SDS011;43650;48.064;20.624;2023-03-23T05:18:51;7.18;;;3.42;;
57822;SDS011;43650;48.064;20.624;2023-03-23T05:19:53;9.93;;;4.12;;
57822;SDS011;43650;48.064;20.624;2023-03-23T05:20:53;5.97;;;3.83;;
57822;SDS011;43650;48.064;20.624;2023-03-23T05:21:56;12.20;;;4.70;;
57822;SDS011;43650;48.064;20.624;2023-03-23T05:23:02;10.18;;;4.22;;
57822;SDS011;43650;48.064;20.624;2023-03-23T05:24:03;7.30;;;3.40;;
57822;SDS011;43650;48.064;20.624;2023-03-23T05:25:04;11.80;;;4.68;;
57822;SDS011;43650;48.064;20.624;2023-03-23T05:26:10;8.85;;;4.20;;
57822;SDS011;43650;48.064;20.624;2023-03-23T05:27:11;10.70;;;5.03;;
57822;SDS011;43650;48.064;20.624;2023-03-23T05:28:12;10.98;;;5.40;;
57822;SDS011;43650;48.064;20.624;2023-03-23T05:29:12;11.67;;;5.23;;
57822;SDS011;43650;48.064;20.624;2023-03-23T05:30:13;10.70;;;4.50;;
57822;SDS011;43650;48.064;20.624;2023-03-23T05:31:16;10.65;;;4.70;;
57822;SDS011;43650;48.064;20.624;2023-03-23T05:32:16;7.90;;;4.40;;
57822;SDS011;43650;48.064;20.624;2023-03-23T05:33:19;9.40;;;4.12;;
57822;SDS011;43650;48.064;20.624;2023-03-23T05:34:20;9.73;;;4.47;;
57822;SDS011;43650;48.064;20.624;2023-03-23T05:35:20;9.23;;;4.63;;
57822;SDS011;43650;48.064;20.624;2023-03-23T05:36:21;10.88;;;4.82;;
57822;SDS011;43650;48.064;20.624;2023-03-23T05:38:23;9.05;;;4.12;;
57822;SDS011;43650;48.064;20.624;2023-03-23T05:39:24;15.67;;;8.13;;
57822;SDS011;43650;48.064;20.624;2023-03-23T05:40:25;14.07;;;9.20;;
57822;SDS011;43650;48.064;20.624;2023-03-23T05:41:27;12.90;;;5.15;;
57822;SDS011;43650;48.064;20.624;2023-03-23T05:42:28;9.50;;;4.93;;
57822;SDS011;43650;48.064;20.624;2023-03-23T05:43:28;12.93;;;4.50;;
57822;SDS011;43650;48.064;20.624;2023-03-23T05:44:29;9.00;;;5.13;;
57822;SDS011;43650;48.064;20.624;2023-03-23T05:45:29;13.87;;;8.53;;
57822;SDS011;43650;48.064;20.624;2023-03-23T05:46:30;7.73;;;4.40;;
57822;SDS011;43650;48.064;20.624;2023-03-23T05:47:30;8.88;;;4.28;;
57822;SDS011;43650;48.064;20.624;2023-03-23T05:48:32;8.52;;;3.62;;
57822;SDS011;43650;48.064;20.624;2023-03-23T05:49:32;7.93;;;4.18;;
57822;SDS011;43650;48.064;20.624;2023-03-23T05:50:33;7.87;;;4.47;;
57822;SDS011;43650;48.064;20.624;2023-03-23T05:51:34;8.60;;;4.45;;
57822;SDS011;43650;48.064;20.624;2023-03-23T05:52:35;6.43;;;3.70;;
57822;SDS011;43650;48.064;20.624;2023-03-23T05:53:37;9.90;;;4.00;;
57822;SDS011;43650;48.064;20.624;2023-03-23T05:54:37;7.63;;;3.50;;
57822;SDS011;43650;48.064;20.624;2023-03-23T05:55:38;10.13;;;4.23;;
57822;SDS011;43650;48.064;20.624;2023-03-23T05:56:38;7.07;;;3.50;;
57822;SDS011;43650;48.064;20.624;2023-03-23T05:57:39;7.40;;;3.53;;
57822;SDS011;43650;48.064;20.624;2023-03-23T05:58:39;6.30;;;4.00;;
57822;SDS011;43650;48.064;20.624;2023-03-23T05:59:40;8.38;;;4.37;;
57822;SDS011;43650;48.064;20.624;2023-03-23T06:00:40;6.80;;;3.37;;
57822;SDS011;43650;48.064;20.624;2023-03-23T06:01:41;7.65;;;4.10;;
57822;SDS011;43650;48.064;20.624;2023-03-23T06:02:41;6.73;;;2.97;;
57822;SDS011;43650;48.064;20.624;2023-03-23T06:03:43;5.28;;;3.00;;
57822;SDS011;43650;48.064;20.624;2023-03-23T06:04:44;9.05;;;2.85;;
57822;SDS011;43650;48.064;20.624;2023-03-23T06:05:45;10.00;;;4.90;;
57822;SDS011;43650;48.064;20.624;2023-03-23T06:06:45;6.90;;;3.60;;
57822;SDS011;43650;48.064;20.624;2023-03-23T06:07:46;9.23;;;3.67;;
57822;SDS011;43650;48.064;20.624;2023-03-23T06:08:46;8.00;;;4.10;;
57822;SDS011;43650;48.064;20.624;2023-03-23T06:09:50;7.97;;;4.78;;
57822;SDS011;43650;48.064;20.624;2023-03-23T06:10:52;8.57;;;3.95;;
57822;SDS011;43650;48.064;20.624;2023-03-23T06:11:52;6.20;;;3.87;;
57822;SDS011;43650;48.064;20.624;2023-03-23T06:12:53;6.37;;;3.80;;
57822;SDS011;43650;48.064;20.624;2023-03-23T06:13:53;7.07;;;3.57;;
57822;SDS011;43650;48.064;20.624;2023-03-23T06:14:54;9.35;;;4.60;;
57822;SDS011;43650;48.064;20.624;2023-03-23T06:15:55;6.57;;;4.47;;
57822;SDS011;43650;48.064;20.624;2023-03-23T06:16:57;7.70;;;3.85;;
57822;SDS011;43650;48.064;20.624;2023-03-23T06:18:01;8.73;;;5.03;;
57822;SDS011;43650;48.064;20.624;2023-03-23T06:19:02;7.60;;;3.90;;
57822;SDS011;43650;48.064;20.624;2023-03-23T06:20:04;7.85;;;3.45;;
57822;SDS011;43650;48.064;20.624;2023-03-23T06:21:10;10.73;;;4.60;;
57822;SDS011;43650;48.064;20.624;2023-03-23T06:22:11;12.32;;;5.65;;
57822;SDS011;43650;48.064;20.624;2023-03-23T06:23:11;8.73;;;5.50;;
57822;SDS011;43650;48.064;20.624;2023-03-23T06:24:12;7.30;;;4.20;;
57822;SDS011;43650;48.064;20.624;2023-03-23T06:25:12;9.37;;;3.90;;
57822;SDS011;43650;48.064;20.624;2023-03-23T06:26:13;7.20;;;3.97;;
57822;SDS011;43650;48.064;20.624;2023-03-23T06:27:16;5.90;;;3.47;;
57822;SDS011;43650;48.064;20.624;2023-03-23T06:28:17;7.25;;;3.62;;
57822;SDS011;43650;48.064;20.624;2023-03-23T06:29:17;7.17;;;3.47;;
57822;SDS011;43650;48.064;20.624;2023-03-23T06:30:18;8.23;;;3.62;;
57822;SDS011;43650;48.064;20.624;2023-03-23T06:31:19;7.68;;;3.33;;
57822;SDS011;43650;48.064;20.624;2023-03-23T06:32:20;5.95;;;3.65;;
57822;SDS011;43650;48.064;20.624;2023-03-23T06:33:21;5.05;;;2.62;;
57822;SDS011;43650;48.064;20.624;2023-03-23T06:34:23;6.25;;;3.50;;
57822;SDS011;43650;48.064;20.624;2023-03-23T06:35:24;6.43;;;3.08;;
57822;SDS011;43650;48.064;20.624;2023-03-23T06:36:25;7.25;;;3.53;;
57822;SDS011;43650;48.064;20.624;2023-03-23T06:38:27;4.70;;;2.70;;
57822;SDS011;43650;48.064;20.624;2023-03-23T06:39:27;6.03;;;3.47;;